Observations for BURLINGTON INTL, VT (BTV)

KBTV 221354Z 30009KT 10SM BKN050 04/M07 A3014 RMK AO2 SLP211 T00391067  
KBTV 221254Z 34003KT 10SM BKN050 03/M07 A3013 RMK AO2 SLP208 T00331067  
KBTV 221154Z 32003KT 10SM BKN055 BKN100 02/M07 A3013 RMK AO2 SLP207 T00171067 10028 20017 53008 
KBTV 221054Z 31005KT 10SM BKN050 02/M07 A3012 RMK AO2 SLP204 T00221067  
KBTV 220954Z 31007KT 10SM BKN055 03/M07 A3011 RMK AO2 SLP201 T00281072  
KBTV 220854Z 30005KT 10SM OVC055 03/M07 A3011 RMK AO2 SLP199 T00281072 53004
KBTV 220754Z 30009KT 10SM OVC055 03/M08 A3010 RMK AO2 SLP197 T00281078  
KBTV 220654Z 31007KT 10SM OVC050 03/M08 A3010 RMK AO2 SLP196 T00281078  
KBTV 220554Z 30006KT 10SM OVC055 03/M08 A3010 RMK AO2 SLP195 T00281078 10033 20022 53009
KBTV 220454Z 30011KT 10SM OVC060 03/M08 A3009 RMK AO2 SLP192 T00281083 400720022
KBTV 220354Z 30008KT 10SM SCT060 BKN200 03/M08 A3007 RMK AO2 SLP188 LAST T00281083  
KBTV 220254Z 30007KT 10SM SCT060 SCT200 03/M08 A3007 RMK AO2 SLP186 T00281083 53010 
KBTV 220154Z 29010KT 10SM SCT060 03/M08 A3006 RMK AO2 SLP182 T00281078  
KBTV 220054Z 30010KT 10SM SCT060 BKN200 03/M08 A3004 RMK AO2 SLP177 T00281078   
KBTV 212354Z 29007KT 10SM BKN060 03/M07 A3004 RMK AO2 SLP176 60000 T00281067 10044 20028 51020  
KBTV 212254Z 30011G20KT 10SM FEW044 OVC060 03/M07 A3003 RMK AO2 SLP172 T00281067
KBTV 212154Z 30010G20KT 10SM SCT042 BKN060 03/M07 A3000 RMK AO2 SNB21E31 SLP162 P0000 T00331067 
KBTV 212054Z 29016G20KT 10SM SCT043 BKN055 04/M07 A2998 RMK AO2 SLP154 60000 T00391067 53010
KBTV 211954Z 30014G27KT 10SM SCT044 BKN055 04/M07 A2996 RMK AO2 PK WND 31027/1949 SLP149 T00391067  
KBTV 211854Z 30016G25KT 10SM OVC049 04/M07 A2996 RMK AO2 PK WND 31026/1758 SNE33 SLP147 P0000 T00391067 
KBTV 211754Z 31017G22KT 9SM -SN OVC046 03/M06 A2995 RMK AO2 SLP144 INTMT SHSN P0000 60000 T00331061 10039 20028 51008   
KBTV 211654Z 32015KT 9SM -SN BKN044 OVC050 03/M07 A2994 RMK AO2 SLP142 INTMT SHSN P0000 T00331067   
KBTV 211554Z 30013KT 9SM -SN OVC042 03/M06 A2994 RMK AO2 SLP141 INTMT SHSN P0000 T00281056  
KBTV 211454Z 31012G22KT 9SM -SN OVC038 03/M06 A2993 RMK AO2 SNB17 SLP136 INTMT SHSN P0000 60000 T00331061 51024 
KBTV 211417Z 30015G25KT 260V340 10SM -SN OVC037 03/M06 A2991 RMK AO2 SNB17 INTMT SHSN P0000 T00331056
KBTV 211354Z 32014KT 9SM BKN038 OVC049 03/M06 A2990 RMK AO2 SNB26E49 SLP129 VCSN P0000 T00331056